Orient, WA

11:26 PM PDT on August 30, 2014 (GMT -0700)
Omak | Change Station
CLOSE
Current Station
Airport
Location: Omak,
Elevation: 1302 ft
Nearby Weather Stations

Elev 1302 ft 48.46 °N, 119.52 °W | Updated 33 minutes ago

Overcast
Overcast
67 °F
Feels Like 67 °F
N
5
Wind Variable Wind from WNW

Today
High -- | Low -- °F
--% Chance of Precip.
Yesterday
High -- | Low -- °F
Precip. -- in
6:06 AM 7:38 PM
Waxing Crescent, 28% visible
Pressure 29.78 in
Visibility 10.0 miles
Clouds Overcast 10000 ft
Dew Point 40 °F
Humidity 37%
Rainfall 0.00 in
Snow Depth 0 in
UV 0 out of 12
Pollen 7.40 out of 12
Air Quality Not available.
Flu Activity Not available.
METAR KOMK 310553Z AUTO 30004KT 10SM OVC100 19/04 A2979 RMK AO2 SLP084 T01940044 10250 20178 51010

More Conditions Fewer Conditions

Pressure 29.78 in
Visibility 10.0 miles
Clouds Overcast 10000 ft
Dew Point 40 °F
Humidity 37%
Rainfall 0.00 in
Snow Depth 0 in
UV 0 out of 12
Pollen 7.40 out of 12
Air Quality Not available.
Flu Activity Not available.
METAR KOMK 310553Z AUTO 30004KT 10SM OVC100 19/04 A2979 RMK AO2 SLP084 T01940044 10250 20178 51010

More Conditions Fewer Conditions

10-Day Weather Forecast

Almanac

Astronomy

Aug. 30, 2014 Rise Set
Actual Time 6:06 AM PDT 7:38 PM PDT
Civil Twilight 5:33 AM PDT 8:11 PM PDT
Nautical Twilight 4:53 AM PDT 8:51 PM PDT
Astronomical Twilight 4:09 AM PDT 9:35 PM PDT
Moon 11:26 AM PDT (8/30) 9:47 PM PDT (8/30)
Length of Visible Light 14h 37m
Length of Day
13h 32m
Tomorrow will be 3m 28s shorter.
Waxing Crescent, 28% of the Moon is Illuminated
Aug 31
Waxing Crescent
Sep 2
First Quarter
Sep 8
Full
Sep 15
Last Quarter
Sep 24
New

Community

WunderPhotos

Upload Photos

1,748,801 photos uploaded!

Nearby

Snow Depth

Station Depth Elevation
Sentinel Butte 0 in 4920 ft
Bunchgrass Meadow 0 in 5000 ft
Moses Mountain 1 in 5300 ft
Quartz Peak 1 in 4700 ft
Harts Pass 0 in 6500 ft

Earthquake Activity

City Distance Mag. Time & Date
No recent earthquake activity has been reported nearby.
Minimum magnitude displayed is 2.5.

Coastal Water Temperatures

Place Temperature
No Stations Reporting

Nearby Weather Stations